< < Back
Terminal Aerodrome Forecast


Current Version              Previous Versions:   1  2  3  4  5  6  7  8  9  

Terminal Aerodrome Forecast

434
FTUS42 KTAE 261727
TAFVLD
TAF
KVLD 261727Z 2618/2718 18010KT P6SM VCSH SCT025 BKN050
     FM270000 21004KT P6SM FEW050 SCT250=



Latest METAR

301
SAUS70 KWBC 272100 RRJ
MTRVLD
METAR KVLD 272053Z AUTO VRB03KT 10SM CLR 34/21 A3003 RMK AO2 SLP174
T03440211 56018


USA.gov is the U.S. government's official web portal to all federal, state and local government web resources and services.